sensor_id;sensor_type;location;lat;lon;timestamp;P1;durP1;ratioP1;P2;durP2;ratioP2
59922;SDS011;45778;51.142;3.732;2023-07-20T00:00:06;15.02;;;5.97;;
59922;SDS011;45778;51.142;3.732;2023-07-20T00:02:32;11.98;;;5.50;;
59922;SDS011;45778;51.142;3.732;2023-07-20T00:04:58;13.00;;;5.05;;
59922;SDS011;45778;51.142;3.732;2023-07-20T00:07:23;12.10;;;6.03;;
59922;SDS011;45778;51.142;3.732;2023-07-20T00:09:50;11.88;;;5.93;;
59922;SDS011;45778;51.142;3.732;2023-07-20T00:12:16;14.27;;;6.43;;
59922;SDS011;45778;51.142;3.732;2023-07-20T00:14:41;18.55;;;6.13;;
59922;SDS011;45778;51.142;3.732;2023-07-20T00:17:07;12.52;;;5.45;;
59922;SDS011;45778;51.142;3.732;2023-07-20T00:19:33;13.98;;;5.82;;
59922;SDS011;45778;51.142;3.732;2023-07-20T00:22:00;12.13;;;6.30;;
59922;SDS011;45778;51.142;3.732;2023-07-20T00:24:26;16.20;;;6.55;;
59922;SDS011;45778;51.142;3.732;2023-07-20T00:26:52;16.27;;;6.32;;
59922;SDS011;45778;51.142;3.732;2023-07-20T00:29:18;14.52;;;7.03;;
59922;SDS011;45778;51.142;3.732;2023-07-20T00:31:43;15.32;;;6.85;;
59922;SDS011;45778;51.142;3.732;2023-07-20T00:34:09;14.82;;;7.57;;
59922;SDS011;45778;51.142;3.732;2023-07-20T00:36:35;18.27;;;7.00;;
59922;SDS011;45778;51.142;3.732;2023-07-20T00:39:02;19.25;;;8.02;;
59922;SDS011;45778;51.142;3.732;2023-07-20T00:41:28;16.80;;;7.05;;
59922;SDS011;45778;51.142;3.732;2023-07-20T00:43:54;13.90;;;7.07;;
59922;SDS011;45778;51.142;3.732;2023-07-20T00:46:22;14.23;;;6.70;;
59922;SDS011;45778;51.142;3.732;2023-07-20T00:48:49;19.15;;;6.63;;
59922;SDS011;45778;51.142;3.732;2023-07-20T00:51:15;16.40;;;7.45;;
59922;SDS011;45778;51.142;3.732;2023-07-20T00:53:41;17.40;;;7.30;;
59922;SDS011;45778;51.142;3.732;2023-07-20T00:56:07;16.00;;;6.90;;
59922;SDS011;45778;51.142;3.732;2023-07-20T00:58:34;17.45;;;7.22;;
59922;SDS011;45778;51.142;3.732;2023-07-20T01:01:00;12.68;;;6.82;;
59922;SDS011;45778;51.142;3.732;2023-07-20T01:03:26;14.55;;;6.90;;
59922;SDS011;45778;51.142;3.732;2023-07-20T01:05:59;15.85;;;6.90;;
59922;SDS011;45778;51.142;3.732;2023-07-20T01:08:33;18.70;;;7.90;;
59922;SDS011;45778;51.142;3.732;2023-07-20T01:11:18;19.50;;;7.78;;
59922;SDS011;45778;51.142;3.732;2023-07-20T01:14:00;16.07;;;7.67;;
59922;SDS011;45778;51.142;3.732;2023-07-20T01:16:27;16.75;;;7.85;;
59922;SDS011;45778;51.142;3.732;2023-07-20T01:18:53;14.82;;;7.30;;
59922;SDS011;45778;51.142;3.732;2023-07-20T01:21:21;14.02;;;8.50;;
59922;SDS011;45778;51.142;3.732;2023-07-20T01:26:50;19.35;;;7.97;;
59922;SDS011;45778;51.142;3.732;2023-07-20T01:32:04;21.38;;;8.57;;
59922;SDS011;45778;51.142;3.732;2023-07-20T01:34:32;13.27;;;8.13;;
59922;SDS011;45778;51.142;3.732;2023-07-20T01:37:02;17.98;;;8.43;;
59922;SDS011;45778;51.142;3.732;2023-07-20T01:39:30;19.45;;;8.80;;
59922;SDS011;45778;51.142;3.732;2023-07-20T01:41:56;15.75;;;8.43;;
59922;SDS011;45778;51.142;3.732;2023-07-20T01:44:23;16.35;;;9.13;;
59922;SDS011;45778;51.142;3.732;2023-07-20T01:46:48;17.55;;;9.40;;
59922;SDS011;45778;51.142;3.732;2023-07-20T01:49:14;15.05;;;9.30;;
59922;SDS011;45778;51.142;3.732;2023-07-20T01:51:40;12.88;;;8.48;;
59922;SDS011;45778;51.142;3.732;2023-07-20T01:54:06;17.80;;;8.45;;
59922;SDS011;45778;51.142;3.732;2023-07-20T01:56:32;15.70;;;9.02;;
59922;SDS011;45778;51.142;3.732;2023-07-20T01:58:57;13.85;;;7.75;;
59922;SDS011;45778;51.142;3.732;2023-07-20T02:01:23;13.07;;;8.45;;
59922;SDS011;45778;51.142;3.732;2023-07-20T02:03:49;15.50;;;8.43;;
59922;SDS011;45778;51.142;3.732;2023-07-20T02:06:14;16.88;;;7.55;;
59922;SDS011;45778;51.142;3.732;2023-07-20T02:08:40;13.73;;;8.38;;
59922;SDS011;45778;51.142;3.732;2023-07-20T02:11:06;13.75;;;8.02;;
59922;SDS011;45778;51.142;3.732;2023-07-20T02:13:31;15.82;;;8.50;;
59922;SDS011;45778;51.142;3.732;2023-07-20T02:15:57;18.50;;;8.10;;
59922;SDS011;45778;51.142;3.732;2023-07-20T02:18:23;12.70;;;7.57;;
59922;SDS011;45778;51.142;3.732;2023-07-20T02:20:48;14.77;;;8.27;;
59922;SDS011;45778;51.142;3.732;2023-07-20T02:23:14;13.65;;;7.85;;
59922;SDS011;45778;51.142;3.732;2023-07-20T02:25:40;13.43;;;8.40;;
59922;SDS011;45778;51.142;3.732;2023-07-20T02:28:07;16.45;;;8.30;;
59922;SDS011;45778;51.142;3.732;2023-07-20T02:30:34;13.90;;;8.43;;
59922;SDS011;45778;51.142;3.732;2023-07-20T02:33:02;13.65;;;7.75;;
59922;SDS011;45778;51.142;3.732;2023-07-20T02:35:30;12.50;;;8.13;;
59922;SDS011;45778;51.142;3.732;2023-07-20T02:37:56;15.07;;;9.25;;
59922;SDS011;45778;51.142;3.732;2023-07-20T02:40:22;14.07;;;7.72;;
59922;SDS011;45778;51.142;3.732;2023-07-20T02:42:48;14.00;;;8.23;;
59922;SDS011;45778;51.142;3.732;2023-07-20T02:45:14;14.90;;;7.88;;
59922;SDS011;45778;51.142;3.732;2023-07-20T02:47:39;11.65;;;8.07;;
59922;SDS011;45778;51.142;3.732;2023-07-20T02:50:06;12.77;;;9.18;;
59922;SDS011;45778;51.142;3.732;2023-07-20T02:52:33;15.40;;;8.60;;
59922;SDS011;45778;51.142;3.732;2023-07-20T02:54:58;13.02;;;8.55;;
59922;SDS011;45778;51.142;3.732;2023-07-20T02:57:24;13.30;;;8.43;;
59922;SDS011;45778;51.142;3.732;2023-07-20T02:59:50;15.50;;;8.70;;
59922;SDS011;45778;51.142;3.732;2023-07-20T03:02:16;14.15;;;9.15;;
59922;SDS011;45778;51.142;3.732;2023-07-20T03:04:41;15.20;;;8.98;;
59922;SDS011;45778;51.142;3.732;2023-07-20T03:07:07;16.13;;;8.80;;
59922;SDS011;45778;51.142;3.732;2023-07-20T03:09:33;14.85;;;9.23;;
59922;SDS011;45778;51.142;3.732;2023-07-20T03:11:58;16.58;;;9.35;;
59922;SDS011;45778;51.142;3.732;2023-07-20T03:14:24;15.52;;;9.27;;
59922;SDS011;45778;51.142;3.732;2023-07-20T03:16:50;13.90;;;9.15;;
59922;SDS011;45778;51.142;3.732;2023-07-20T03:19:16;14.05;;;8.30;;
59922;SDS011;45778;51.142;3.732;2023-07-20T03:21:41;13.20;;;8.45;;
59922;SDS011;45778;51.142;3.732;2023-07-20T03:24:07;18.02;;;9.18;;
59922;SDS011;45778;51.142;3.732;2023-07-20T03:26:34;14.57;;;9.55;;
59922;SDS011;45778;51.142;3.732;2023-07-20T03:29:00;14.13;;;9.23;;
59922;SDS011;45778;51.142;3.732;2023-07-20T03:31:27;16.55;;;9.80;;
59922;SDS011;45778;51.142;3.732;2023-07-20T03:33:52;15.13;;;9.05;;
59922;SDS011;45778;51.142;3.732;2023-07-20T03:36:18;15.95;;;8.93;;
59922;SDS011;45778;51.142;3.732;2023-07-20T03:38:44;16.13;;;8.55;;
59922;SDS011;45778;51.142;3.732;2023-07-20T03:41:10;12.18;;;9.00;;
59922;SDS011;45778;51.142;3.732;2023-07-20T03:43:36;18.05;;;9.07;;
59922;SDS011;45778;51.142;3.732;2023-07-20T03:46:02;14.95;;;8.68;;
59922;SDS011;45778;51.142;3.732;2023-07-20T03:48:32;10.40;;;8.43;;
59922;SDS011;45778;51.142;3.732;2023-07-20T03:50:58;13.93;;;9.15;;
59922;SDS011;45778;51.142;3.732;2023-07-20T03:53:25;15.77;;;9.48;;
59922;SDS011;45778;51.142;3.732;2023-07-20T03:55:51;15.40;;;10.57;;
59922;SDS011;45778;51.142;3.732;2023-07-20T03:58:18;13.38;;;9.57;;
59922;SDS011;45778;51.142;3.732;2023-07-20T04:00:48;12.32;;;9.15;;
59922;SDS011;45778;51.142;3.732;2023-07-20T04:03:18;12.27;;;9.23;;
59922;SDS011;45778;51.142;3.732;2023-07-20T04:05:44;15.02;;;10.48;;
59922;SDS011;45778;51.142;3.732;2023-07-20T04:08:10;18.05;;;9.60;;
59922;SDS011;45778;51.142;3.732;2023-07-20T04:10:36;14.23;;;10.20;;
59922;SDS011;45778;51.142;3.732;2023-07-20T04:13:02;13.88;;;9.32;;
59922;SDS011;45778;51.142;3.732;2023-07-20T04:15:29;14.18;;;9.15;;
59922;SDS011;45778;51.142;3.732;2023-07-20T04:17:55;14.50;;;10.00;;
59922;SDS011;45778;51.142;3.732;2023-07-20T04:20:21;12.77;;;9.80;;
59922;SDS011;45778;51.142;3.732;2023-07-20T04:22:48;13.15;;;11.05;;
59922;SDS011;45778;51.142;3.732;2023-07-20T04:25:14;16.42;;;10.25;;
59922;SDS011;45778;51.142;3.732;2023-07-20T04:27:40;12.88;;;9.68;;
59922;SDS011;45778;51.142;3.732;2023-07-20T04:30:08;11.30;;;9.38;;
59922;SDS011;45778;51.142;3.732;2023-07-20T04:32:36;15.07;;;10.50;;
59922;SDS011;45778;51.142;3.732;2023-07-20T04:35:05;13.95;;;9.52;;
59922;SDS011;45778;51.142;3.732;2023-07-20T04:37:32;15.82;;;9.63;;
59922;SDS011;45778;51.142;3.732;2023-07-20T04:39:58;15.05;;;9.85;;
59922;SDS011;45778;51.142;3.732;2023-07-20T04:42:24;13.50;;;8.90;;
59922;SDS011;45778;51.142;3.732;2023-07-20T04:44:50;14.35;;;9.57;;
59922;SDS011;45778;51.142;3.732;2023-07-20T04:47:15;11.02;;;9.45;;
59922;SDS011;45778;51.142;3.732;2023-07-20T04:49:41;12.00;;;9.05;;
59922;SDS011;45778;51.142;3.732;2023-07-20T04:52:07;14.63;;;9.90;;
59922;SDS011;45778;51.142;3.732;2023-07-20T04:54:33;13.00;;;9.73;;
59922;SDS011;45778;51.142;3.732;2023-07-20T04:56:58;13.05;;;9.52;;
59922;SDS011;45778;51.142;3.732;2023-07-20T04:59:24;13.00;;;10.13;;
59922;SDS011;45778;51.142;3.732;2023-07-20T05:01:50;12.25;;;9.80;;
59922;SDS011;45778;51.142;3.732;2023-07-20T05:04:15;14.93;;;10.20;;
59922;SDS011;45778;51.142;3.732;2023-07-20T05:06:41;16.98;;;9.45;;
59922;SDS011;45778;51.142;3.732;2023-07-20T05:09:07;14.27;;;9.48;;
59922;SDS011;45778;51.142;3.732;2023-07-20T05:11:33;12.00;;;9.40;;
59922;SDS011;45778;51.142;3.732;2023-07-20T05:13:59;14.23;;;9.50;;
59922;SDS011;45778;51.142;3.732;2023-07-20T05:16:25;11.23;;;9.15;;
59922;SDS011;45778;51.142;3.732;2023-07-20T05:18:51;11.20;;;9.73;;
59922;SDS011;45778;51.142;3.732;2023-07-20T05:21:16;11.95;;;9.05;;
59922;SDS011;45778;51.142;3.732;2023-07-20T05:23:42;12.20;;;9.07;;
59922;SDS011;45778;51.142;3.732;2023-07-20T05:26:08;12.13;;;8.75;;
59922;SDS011;45778;51.142;3.732;2023-07-20T05:28:34;12.35;;;8.38;;
59922;SDS011;45778;51.142;3.732;2023-07-20T05:31:02;12.30;;;8.65;;
59922;SDS011;45778;51.142;3.732;2023-07-20T05:33:28;9.30;;;8.25;;
59922;SDS011;45778;51.142;3.732;2023-07-20T05:35:53;12.00;;;8.27;;
59922;SDS011;45778;51.142;3.732;2023-07-20T05:38:19;9.63;;;8.18;;
59922;SDS011;45778;51.142;3.732;2023-07-20T05:40:45;10.40;;;7.65;;
59922;SDS011;45778;51.142;3.732;2023-07-20T05:43:12;9.18;;;7.22;;
59922;SDS011;45778;51.142;3.732;2023-07-20T05:45:41;7.63;;;5.93;;
59922;SDS011;45778;51.142;3.732;2023-07-20T05:48:08;9.30;;;7.28;;
59922;SDS011;45778;51.142;3.732;2023-07-20T05:50:36;10.07;;;7.07;;
59922;SDS011;45778;51.142;3.732;2023-07-20T05:53:02;8.55;;;7.13;;
59922;SDS011;45778;51.142;3.732;2023-07-20T05:55:28;10.05;;;7.00;;
59922;SDS011;45778;51.142;3.732;2023-07-20T05:57:53;9.32;;;7.38;;
59922;SDS011;45778;51.142;3.732;2023-07-20T06:00:20;8.23;;;6.80;;
59922;SDS011;45778;51.142;3.732;2023-07-20T06:02:51;8.48;;;6.90;;
59922;SDS011;45778;51.142;3.732;2023-07-20T06:05:18;6.88;;;6.03;;
59922;SDS011;45778;51.142;3.732;2023-07-20T06:07:45;6.78;;;5.88;;
59922;SDS011;45778;51.142;3.732;2023-07-20T06:10:11;6.10;;;4.75;;
59922;SDS011;45778;51.142;3.732;2023-07-20T06:12:36;6.32;;;3.95;;
59922;SDS011;45778;51.142;3.732;2023-07-20T06:15:03;4.43;;;3.97;;
59922;SDS011;45778;51.142;3.732;2023-07-20T06:17:29;4.13;;;3.28;;
59922;SDS011;45778;51.142;3.732;2023-07-20T06:19:55;4.78;;;3.90;;
59922;SDS011;45778;51.142;3.732;2023-07-20T06:22:21;5.70;;;2.95;;
59922;SDS011;45778;51.142;3.732;2023-07-20T06:24:47;3.00;;;2.60;;
59922;SDS011;45778;51.142;3.732;2023-07-20T06:27:12;3.00;;;2.70;;
59922;SDS011;45778;51.142;3.732;2023-07-20T06:29:38;3.50;;;2.67;;
59922;SDS011;45778;51.142;3.732;2023-07-20T06:32:05;5.90;;;2.78;;
59922;SDS011;45778;51.142;3.732;2023-07-20T06:34:31;5.55;;;3.00;;
59922;SDS011;45778;51.142;3.732;2023-07-20T06:37:01;5.30;;;2.95;;
59922;SDS011;45778;51.142;3.732;2023-07-20T06:39:28;3.20;;;2.90;;
59922;SDS011;45778;51.142;3.732;2023-07-20T06:41:54;3.33;;;2.38;;
59922;SDS011;45778;51.142;3.732;2023-07-20T06:44:20;2.47;;;2.00;;
59922;SDS011;45778;51.142;3.732;2023-07-20T06:46:46;2.78;;;2.10;;
59922;SDS011;45778;51.142;3.732;2023-07-20T06:49:19;2.08;;;1.27;;
59922;SDS011;45778;51.142;3.732;2023-07-20T06:51:52;3.38;;;1.50;;
59922;SDS011;45778;51.142;3.732;2023-07-20T06:54:21;2.33;;;0.90;;
59922;SDS011;45778;51.142;3.732;2023-07-20T06:56:47;3.05;;;1.00;;
59922;SDS011;45778;51.142;3.732;2023-07-20T06:59:13;2.03;;;0.90;;
59922;SDS011;45778;51.142;3.732;2023-07-20T07:01:39;1.00;;;0.90;;
59922;SDS011;45778;51.142;3.732;2023-07-20T07:04:04;0.70;;;0.50;;
59922;SDS011;45778;51.142;3.732;2023-07-20T07:06:30;0.45;;;0.30;;
59922;SDS011;45778;51.142;3.732;2023-07-20T07:08:56;0.40;;;0.40;;
59922;SDS011;45778;51.142;3.732;2023-07-20T07:11:22;1.63;;;0.43;;
59922;SDS011;45778;51.142;3.732;2023-07-20T07:13:48;0.30;;;0.30;;
59922;SDS011;45778;51.142;3.732;2023-07-20T07:16:16;0.20;;;0.20;;
59922;SDS011;45778;51.142;3.732;2023-07-20T07:18:46;0.28;;;0.20;;
59922;SDS011;45778;51.142;3.732;2023-07-20T07:21:12;2.28;;;0.30;;
59922;SDS011;45778;51.142;3.732;2023-07-20T07:23:38;1.33;;;0.30;;
59922;SDS011;45778;51.142;3.732;2023-07-20T07:26:04;1.30;;;0.30;;
59922;SDS011;45778;51.142;3.732;2023-07-20T07:28:30;0.40;;;0.20;;
59922;SDS011;45778;51.142;3.732;2023-07-20T07:30:56;0.60;;;0.20;;
59922;SDS011;45778;51.142;3.732;2023-07-20T07:33:22;0.52;;;0.20;;
59922;SDS011;45778;51.142;3.732;2023-07-20T07:35:49;0.50;;;0.20;;
59922;SDS011;45778;51.142;3.732;2023-07-20T07:38:16;0.50;;;0.20;;
59922;SDS011;45778;51.142;3.732;2023-07-20T07:40:42;0.40;;;0.10;;
59922;SDS011;45778;51.142;3.732;2023-07-20T07:43:07;2.00;;;0.30;;
59922;SDS011;45778;51.142;3.732;2023-07-20T07:45:34;0.68;;;0.40;;
59922;SDS011;45778;51.142;3.732;2023-07-20T07:48:02;0.52;;;0.20;;
59922;SDS011;45778;51.142;3.732;2023-07-20T07:50:28;0.95;;;0.32;;
59922;SDS011;45778;51.142;3.732;2023-07-20T07:52:54;0.30;;;0.20;;
59922;SDS011;45778;51.142;3.732;2023-07-20T07:55:20;0.45;;;0.32;;
59922;SDS011;45778;51.142;3.732;2023-07-20T07:57:45;3.00;;;0.40;;
59922;SDS011;45778;51.142;3.732;2023-07-20T08:00:12;0.95;;;0.30;;
59922;SDS011;45778;51.142;3.732;2023-07-20T08:02:42;0.90;;;0.40;;
59922;SDS011;45778;51.142;3.732;2023-07-20T08:05:08;1.23;;;0.40;;
59922;SDS011;45778;51.142;3.732;2023-07-20T08:07:35;4.28;;;0.50;;
59922;SDS011;45778;51.142;3.732;2023-07-20T08:10:04;0.35;;;0.25;;
59922;SDS011;45778;51.142;3.732;2023-07-20T08:12:30;1.20;;;0.30;;
59922;SDS011;45778;51.142;3.732;2023-07-20T08:14:56;1.67;;;0.30;;
59922;SDS011;45778;51.142;3.732;2023-07-20T08:17:22;0.20;;;0.20;;
59922;SDS011;45778;51.142;3.732;2023-07-20T08:19:47;0.20;;;0.20;;
59922;SDS011;45778;51.142;3.732;2023-07-20T08:22:13;1.08;;;0.20;;
59922;SDS011;45778;51.142;3.732;2023-07-20T08:24:42;0.68;;;0.40;;
59922;SDS011;45778;51.142;3.732;2023-07-20T08:27:08;35.08;;;3.40;;
59922;SDS011;45778;51.142;3.732;2023-07-20T08:29:35;0.10;;;0.10;;
59922;SDS011;45778;51.142;3.732;2023-07-20T08:32:01;0.20;;;0.20;;
59922;SDS011;45778;51.142;3.732;2023-07-20T08:34:27;0.30;;;0.30;;
59922;SDS011;45778;51.142;3.732;2023-07-20T08:36:53;2.85;;;0.22;;
59922;SDS011;45778;51.142;3.732;2023-07-20T08:39:19;1.38;;;0.50;;
59922;SDS011;45778;51.142;3.732;2023-07-20T08:41:47;0.17;;;0.17;;
59922;SDS011;45778;51.142;3.732;2023-07-20T08:44:13;1.05;;;0.38;;
59922;SDS011;45778;51.142;3.732;2023-07-20T08:46:40;0.30;;;0.30;;
59922;SDS011;45778;51.142;3.732;2023-07-20T08:49:07;1.33;;;0.50;;
59922;SDS011;45778;51.142;3.732;2023-07-20T08:51:33;0.88;;;0.40;;
59922;SDS011;45778;51.142;3.732;2023-07-20T08:54:01;3.72;;;0.60;;
59922;SDS011;45778;51.142;3.732;2023-07-20T08:56:27;0.63;;;0.43;;
59922;SDS011;45778;51.142;3.732;2023-07-20T08:58:56;1.35;;;0.40;;
59922;SDS011;45778;51.142;3.732;2023-07-20T09:01:22;1.95;;;0.43;;
59922;SDS011;45778;51.142;3.732;2023-07-20T09:03:48;1.45;;;0.45;;
59922;SDS011;45778;51.142;3.732;2023-07-20T09:06:14;0.57;;;0.47;;
59922;SDS011;45778;51.142;3.732;2023-07-20T09:08:41;1.38;;;0.40;;
59922;SDS011;45778;51.142;3.732;2023-07-20T09:11:07;0.28;;;0.28;;
59922;SDS011;45778;51.142;3.732;2023-07-20T09:13:35;0.30;;;0.30;;
59922;SDS011;45778;51.142;3.732;2023-07-20T09:16:02;0.93;;;0.50;;
59922;SDS011;45778;51.142;3.732;2023-07-20T09:18:30;0.70;;;0.45;;
59922;SDS011;45778;51.142;3.732;2023-07-20T09:21:03;0.60;;;0.50;;
59922;SDS011;45778;51.142;3.732;2023-07-20T09:23:34;1.42;;;0.50;;
59922;SDS011;45778;51.142;3.732;2023-07-20T09:26:01;0.75;;;0.50;;
59922;SDS011;45778;51.142;3.732;2023-07-20T09:28:42;1.23;;;1.13;;
59922;SDS011;45778;51.142;3.732;2023-07-20T09:31:19;1.20;;;0.40;;
59922;SDS011;45778;51.142;3.732;2023-07-20T09:33:46;0.88;;;0.57;;
59922;SDS011;45778;51.142;3.732;2023-07-20T09:36:13;0.82;;;0.32;;
59922;SDS011;45778;51.142;3.732;2023-07-20T09:38:42;2.20;;;0.43;;
59922;SDS011;45778;51.142;3.732;2023-07-20T09:41:12;1.55;;;0.50;;
59922;SDS011;45778;51.142;3.732;2023-07-20T09:43:39;0.68;;;0.47;;
59922;SDS011;45778;51.142;3.732;2023-07-20T09:46:05;0.35;;;0.30;;
59922;SDS011;45778;51.142;3.732;2023-07-20T09:48:31;0.70;;;0.40;;
59922;SDS011;45778;51.142;3.732;2023-07-20T09:50:57;0.60;;;0.30;;
59922;SDS011;45778;51.142;3.732;2023-07-20T09:53:24;1.25;;;0.50;;
59922;SDS011;45778;51.142;3.732;2023-07-20T09:55:51;0.70;;;0.50;;
59922;SDS011;45778;51.142;3.732;2023-07-20T09:58:18;0.57;;;0.40;;
59922;SDS011;45778;51.142;3.732;2023-07-20T10:00:44;1.95;;;0.40;;
59922;SDS011;45778;51.142;3.732;2023-07-20T10:03:19;1.05;;;0.52;;
59922;SDS011;45778;51.142;3.732;2023-07-20T10:05:47;1.10;;;0.50;;
59922;SDS011;45778;51.142;3.732;2023-07-20T10:08:17;1.02;;;0.60;;
59922;SDS011;45778;51.142;3.732;2023-07-20T10:10:45;1.40;;;0.55;;
59922;SDS011;45778;51.142;3.732;2023-07-20T10:13:16;1.23;;;0.77;;
59922;SDS011;45778;51.142;3.732;2023-07-20T10:15:46;0.70;;;0.40;;
59922;SDS011;45778;51.142;3.732;2023-07-20T10:18:22;0.40;;;0.40;;
59922;SDS011;45778;51.142;3.732;2023-07-20T10:23:15;0.60;;;0.50;;
59922;SDS011;45778;51.142;3.732;2023-07-20T10:25:42;1.10;;;0.60;;
59922;SDS011;45778;51.142;3.732;2023-07-20T10:28:08;0.88;;;0.73;;
59922;SDS011;45778;51.142;3.732;2023-07-20T10:30:36;1.25;;;0.73;;
59922;SDS011;45778;51.142;3.732;2023-07-20T10:33:02;3.17;;;0.50;;
59922;SDS011;45778;51.142;3.732;2023-07-20T10:35:29;0.73;;;0.50;;
59922;SDS011;45778;51.142;3.732;2023-07-20T10:38:02;0.70;;;0.50;;
59922;SDS011;45778;51.142;3.732;2023-07-20T10:48:04;1.00;;;0.80;;
59922;SDS011;45778;51.142;3.732;2023-07-20T10:50:32;1.17;;;1.05;;
59922;SDS011;45778;51.142;3.732;2023-07-20T10:53:12;0.70;;;0.65;;
59922;SDS011;45778;51.142;3.732;2023-07-20T10:55:42;1.97;;;0.77;;
59922;SDS011;45778;51.142;3.732;2023-07-20T10:58:13;2.17;;;0.60;;
59922;SDS011;45778;51.142;3.732;2023-07-20T11:00:58;1.20;;;0.50;;
59922;SDS011;45778;51.142;3.732;2023-07-20T11:03:26;1.58;;;0.60;;
59922;SDS011;45778;51.142;3.732;2023-07-20T11:05:53;2.22;;;0.80;;
59922;SDS011;45778;51.142;3.732;2023-07-20T11:08:38;3.53;;;0.80;;
59922;SDS011;45778;51.142;3.732;2023-07-20T11:13:53;0.70;;;0.70;;
59922;SDS011;45778;51.142;3.732;2023-07-20T11:19:17;0.93;;;0.60;;
59922;SDS011;45778;51.142;3.732;2023-07-20T11:21:45;1.00;;;0.60;;
59922;SDS011;45778;51.142;3.732;2023-07-20T11:24:14;1.05;;;0.77;;
59922;SDS011;45778;51.142;3.732;2023-07-20T11:26:41;1.23;;;0.82;;
59922;SDS011;45778;51.142;3.732;2023-07-20T11:29:08;0.70;;;0.70;;
59922;SDS011;45778;51.142;3.732;2023-07-20T11:31:40;1.60;;;0.82;;
59922;SDS011;45778;51.142;3.732;2023-07-20T11:34:09;1.15;;;0.88;;
59922;SDS011;45778;51.142;3.732;2023-07-20T11:36:38;1.25;;;0.93;;
59922;SDS011;45778;51.142;3.732;2023-07-20T11:39:08;1.92;;;0.90;;
59922;SDS011;45778;51.142;3.732;2023-07-20T11:41:37;1.10;;;0.80;;
59922;SDS011;45778;51.142;3.732;2023-07-20T11:44:05;3.60;;;1.23;;
59922;SDS011;45778;51.142;3.732;2023-07-20T11:49:07;2.67;;;1.70;;
59922;SDS011;45778;51.142;3.732;2023-07-20T11:51:34;4.63;;;2.15;;
59922;SDS011;45778;51.142;3.732;2023-07-20T11:54:01;2.58;;;1.38;;
59922;SDS011;45778;51.142;3.732;2023-07-20T11:56:28;1.38;;;1.10;;
59922;SDS011;45778;51.142;3.732;2023-07-20T11:58:54;5.85;;;1.20;;
59922;SDS011;45778;51.142;3.732;2023-07-20T12:01:22;2.25;;;1.70;;
59922;SDS011;45778;51.142;3.732;2023-07-20T12:03:48;1.88;;;1.10;;
59922;SDS011;45778;51.142;3.732;2023-07-20T12:06:15;3.00;;;1.00;;
59922;SDS011;45778;51.142;3.732;2023-07-20T12:08:41;3.92;;;1.00;;
59922;SDS011;45778;51.142;3.732;2023-07-20T12:11:08;1.23;;;1.02;;
59922;SDS011;45778;51.142;3.732;2023-07-20T12:16:09;1.17;;;0.90;;
59922;SDS011;45778;51.142;3.732;2023-07-20T12:18:36;2.20;;;0.85;;
59922;SDS011;45778;51.142;3.732;2023-07-20T12:21:02;1.40;;;1.02;;
59922;SDS011;45778;51.142;3.732;2023-07-20T12:23:34;2.63;;;0.80;;
59922;SDS011;45778;51.142;3.732;2023-07-20T12:26:02;2.83;;;1.10;;
59922;SDS011;45778;51.142;3.732;2023-07-20T12:28:28;2.17;;;0.70;;
59922;SDS011;45778;51.142;3.732;2023-07-20T12:30:55;1.23;;;0.90;;
59922;SDS011;45778;51.142;3.732;2023-07-20T12:33:23;1.33;;;1.10;;
59922;SDS011;45778;51.142;3.732;2023-07-20T12:35:49;1.73;;;0.70;;
59922;SDS011;45778;51.142;3.732;2023-07-20T12:38:16;3.10;;;0.93;;
59922;SDS011;45778;51.142;3.732;2023-07-20T12:40:42;1.67;;;0.90;;
59922;SDS011;45778;51.142;3.732;2023-07-20T12:43:07;3.05;;;1.08;;
59922;SDS011;45778;51.142;3.732;2023-07-20T12:45:33;0.82;;;0.77;;
59922;SDS011;45778;51.142;3.732;2023-07-20T12:47:59;2.05;;;0.85;;
59922;SDS011;45778;51.142;3.732;2023-07-20T12:50:26;4.47;;;0.90;;
59922;SDS011;45778;51.142;3.732;2023-07-20T12:52:52;1.02;;;0.80;;
59922;SDS011;45778;51.142;3.732;2023-07-20T12:55:18;1.73;;;0.75;;
59922;SDS011;45778;51.142;3.732;2023-07-20T12:57:43;3.92;;;0.77;;
59922;SDS011;45778;51.142;3.732;2023-07-20T13:00:10;2.40;;;1.10;;
59922;SDS011;45778;51.142;3.732;2023-07-20T13:02:37;2.38;;;0.80;;
59922;SDS011;45778;51.142;3.732;2023-07-20T13:05:03;2.47;;;0.63;;
59922;SDS011;45778;51.142;3.732;2023-07-20T13:07:33;1.00;;;0.90;;
59922;SDS011;45778;51.142;3.732;2023-07-20T13:10:01;0.50;;;0.50;;
59922;SDS011;45778;51.142;3.732;2023-07-20T13:12:29;2.03;;;0.60;;
59922;SDS011;45778;51.142;3.732;2023-07-20T13:14:56;1.40;;;0.80;;
59922;SDS011;45778;51.142;3.732;2023-07-20T13:17:25;0.93;;;0.60;;
59922;SDS011;45778;51.142;3.732;2023-07-20T13:19:51;1.02;;;0.60;;
59922;SDS011;45778;51.142;3.732;2023-07-20T13:22:17;1.42;;;0.90;;
59922;SDS011;45778;51.142;3.732;2023-07-20T13:24:44;2.28;;;0.55;;
59922;SDS011;45778;51.142;3.732;2023-07-20T13:27:16;1.67;;;0.70;;
59922;SDS011;45778;51.142;3.732;2023-07-20T13:29:43;1.95;;;0.80;;
59922;SDS011;45778;51.142;3.732;2023-07-20T13:32:09;1.65;;;0.70;;
59922;SDS011;45778;51.142;3.732;2023-07-20T13:34:35;0.95;;;0.65;;
59922;SDS011;45778;51.142;3.732;2023-07-20T13:37:01;1.45;;;1.15;;
59922;SDS011;45778;51.142;3.732;2023-07-20T13:39:27;1.67;;;1.58;;
59922;SDS011;45778;51.142;3.732;2023-07-20T13:41:53;1.98;;;1.60;;
59922;SDS011;45778;51.142;3.732;2023-07-20T13:44:19;3.45;;;1.83;;
59922;SDS011;45778;51.142;3.732;2023-07-20T13:46:46;2.63;;;2.42;;
59922;SDS011;45778;51.142;3.732;2023-07-20T13:49:12;3.90;;;2.08;;
59922;SDS011;45778;51.142;3.732;2023-07-20T13:51:39;3.22;;;2.70;;
59922;SDS011;45778;51.142;3.732;2023-07-20T13:54:05;3.92;;;3.53;;
59922;SDS011;45778;51.142;3.732;2023-07-20T13:56:31;4.63;;;3.42;;
59922;SDS011;45778;51.142;3.732;2023-07-20T13:58:57;4.43;;;3.60;;
59922;SDS011;45778;51.142;3.732;2023-07-20T14:01:22;5.43;;;3.30;;
59922;SDS011;45778;51.142;3.732;2023-07-20T14:03:49;4.75;;;2.97;;
59922;SDS011;45778;51.142;3.732;2023-07-20T14:06:16;6.25;;;3.28;;
59922;SDS011;45778;51.142;3.732;2023-07-20T14:08:42;3.92;;;3.55;;
59922;SDS011;45778;51.142;3.732;2023-07-20T14:11:11;3.65;;;3.30;;
59922;SDS011;45778;51.142;3.732;2023-07-20T14:13:37;3.22;;;2.92;;
59922;SDS011;45778;51.142;3.732;2023-07-20T14:16:03;4.38;;;3.03;;
59922;SDS011;45778;51.142;3.732;2023-07-20T14:18:29;5.47;;;3.05;;
59922;SDS011;45778;51.142;3.732;2023-07-20T14:20:55;3.60;;;3.08;;
59922;SDS011;45778;51.142;3.732;2023-07-20T14:23:20;3.97;;;3.33;;
59922;SDS011;45778;51.142;3.732;2023-07-20T14:25:47;4.68;;;3.50;;
59922;SDS011;45778;51.142;3.732;2023-07-20T14:28:13;4.72;;;3.00;;
59922;SDS011;45778;51.142;3.732;2023-07-20T14:30:39;4.35;;;3.53;;
59922;SDS011;45778;51.142;3.732;2023-07-20T14:33:05;4.10;;;3.67;;
59922;SDS011;45778;51.142;3.732;2023-07-20T14:35:31;6.53;;;3.47;;
59922;SDS011;45778;51.142;3.732;2023-07-20T14:37:57;4.45;;;4.00;;
59922;SDS011;45778;51.142;3.732;2023-07-20T14:40:23;3.63;;;3.22;;
59922;SDS011;45778;51.142;3.732;2023-07-20T14:42:49;4.68;;;4.13;;
59922;SDS011;45778;51.142;3.732;2023-07-20T14:45:14;4.57;;;4.15;;
59922;SDS011;45778;51.142;3.732;2023-07-20T14:47:41;4.63;;;4.07;;
59922;SDS011;45778;51.142;3.732;2023-07-20T14:50:08;4.47;;;4.07;;
59922;SDS011;45778;51.142;3.732;2023-07-20T14:52:34;4.88;;;4.43;;
59922;SDS011;45778;51.142;3.732;2023-07-20T14:55:00;6.10;;;5.00;;
59922;SDS011;45778;51.142;3.732;2023-07-20T14:57:25;5.10;;;4.70;;
59922;SDS011;45778;51.142;3.732;2023-07-20T14:59:51;5.03;;;4.53;;
59922;SDS011;45778;51.142;3.732;2023-07-20T15:02:18;4.60;;;4.15;;
59922;SDS011;45778;51.142;3.732;2023-07-20T15:04:47;4.13;;;3.72;;
59922;SDS011;45778;51.142;3.732;2023-07-20T15:07:17;3.75;;;3.45;;